BRM weather

Barquisimeto International Airport
Barquisimeto, Lara, Venezuela

Public forecast

Using degrees Celsius for public forecast. Weather courtesy of forecast.io.

METAR (pilot weather report)

Retrieved 2019/09/16 15:21 UTC (9 minutes ago):

SVBM 161521Z 09008KT 9999 SCT016 29/20 Q1015

TAF (pilot weather forecast)

Forecast is more than 12 hours old.

Retrieved 2019/09/15 12:09 UTC (1 day ago):

TAF SVBM 151001Z 1512/1612 09009KT 9999 FEW016 SCT070 TX33/1518Z TN22/1608Z BECMG 1512/1516 10010KT 6000 TSRA FEW010 CB BKN060